sensor_id;sensor_type;location;lat;lon;timestamp;temperature;humidity
52643;DHT22;38531;53.296;6.614;2023-03-14T00:01:25;9.50;99.90
52643;DHT22;38531;53.296;6.614;2023-03-14T00:03:51;9.50;99.90
52643;DHT22;38531;53.296;6.614;2023-03-14T00:06:17;9.70;99.90
52643;DHT22;38531;53.296;6.614;2023-03-14T00:08:44;9.60;99.90
52643;DHT22;38531;53.296;6.614;2023-03-14T00:11:14;9.60;99.90
52643;DHT22;38531;53.296;6.614;2023-03-14T00:13:40;10.40;99.90
52643;DHT22;38531;53.296;6.614;2023-03-14T00:16:10;10.00;99.90
52643;DHT22;38531;53.296;6.614;2023-03-14T00:18:36;9.60;99.90
52643;DHT22;38531;53.296;6.614;2023-03-14T00:21:03;9.70;99.90
52643;DHT22;38531;53.296;6.614;2023-03-14T00:23:31;9.70;99.90
52643;DHT22;38531;53.296;6.614;2023-03-14T00:26:02;9.70;99.90
52643;DHT22;38531;53.296;6.614;2023-03-14T00:28:28;9.70;99.90
52643;DHT22;38531;53.296;6.614;2023-03-14T00:30:54;9.80;99.90
52643;DHT22;38531;53.296;6.614;2023-03-14T00:33:20;10.10;99.90
52643;DHT22;38531;53.296;6.614;2023-03-14T00:35:57;9.80;99.90
52643;DHT22;38531;53.296;6.614;2023-03-14T00:38:23;9.80;99.90
52643;DHT22;38531;53.296;6.614;2023-03-14T00:40:52;9.90;99.90
52643;DHT22;38531;53.296;6.614;2023-03-14T00:43:19;10.40;99.90
52643;DHT22;38531;53.296;6.614;2023-03-14T00:45:48;9.80;99.90
52643;DHT22;38531;53.296;6.614;2023-03-14T00:48:14;9.80;99.90
52643;DHT22;38531;53.296;6.614;2023-03-14T00:50:40;10.60;99.90
52643;DHT22;38531;53.296;6.614;2023-03-14T00:53:06;9.80;99.90
52643;DHT22;38531;53.296;6.614;2023-03-14T00:55:32;9.90;99.90
52643;DHT22;38531;53.296;6.614;2023-03-14T00:58:01;9.90;99.90
52643;DHT22;38531;53.296;6.614;2023-03-14T01:00:26;9.80;99.90
52643;DHT22;38531;53.296;6.614;2023-03-14T01:02:52;9.90;99.90
52643;DHT22;38531;53.296;6.614;2023-03-14T01:05:18;9.80;99.90
52643;DHT22;38531;53.296;6.614;2023-03-14T01:07:46;10.00;99.90
52643;DHT22;38531;53.296;6.614;2023-03-14T01:10:12;9.90;99.90
52643;DHT22;38531;53.296;6.614;2023-03-14T01:12:38;9.80;99.90
52643;DHT22;38531;53.296;6.614;2023-03-14T01:15:06;9.80;99.90
52643;DHT22;38531;53.296;6.614;2023-03-14T01:17:32;9.80;99.90
52643;DHT22;38531;53.296;6.614;2023-03-14T01:19:59;9.80;99.90
52643;DHT22;38531;53.296;6.614;2023-03-14T01:22:25;9.90;99.90
52643;DHT22;38531;53.296;6.614;2023-03-14T01:24:51;9.90;99.90
52643;DHT22;38531;53.296;6.614;2023-03-14T01:27:17;9.90;99.90
52643;DHT22;38531;53.296;6.614;2023-03-14T01:29:42;9.90;99.90
52643;DHT22;38531;53.296;6.614;2023-03-14T01:32:08;10.00;99.90
52643;DHT22;38531;53.296;6.614;2023-03-14T01:34:36;10.00;99.90
52643;DHT22;38531;53.296;6.614;2023-03-14T01:37:02;10.00;99.90
52643;DHT22;38531;53.296;6.614;2023-03-14T01:39:28;10.00;99.90
52643;DHT22;38531;53.296;6.614;2023-03-14T01:41:54;10.10;99.90
52643;DHT22;38531;53.296;6.614;2023-03-14T01:44:20;10.10;99.90
52643;DHT22;38531;53.296;6.614;2023-03-14T01:46:46;10.00;99.90
52643;DHT22;38531;53.296;6.614;2023-03-14T01:49:28;10.00;99.90
52643;DHT22;38531;53.296;6.614;2023-03-14T01:54:33;10.10;99.90
52643;DHT22;38531;53.296;6.614;2023-03-14T01:57:17;10.70;99.90
52643;DHT22;38531;53.296;6.614;2023-03-14T01:59:52;10.30;99.90
52643;DHT22;38531;53.296;6.614;2023-03-14T02:02:19;10.10;99.90
52643;DHT22;38531;53.296;6.614;2023-03-14T02:04:46;10.10;99.90
52643;DHT22;38531;53.296;6.614;2023-03-14T02:07:40;10.10;99.90
52643;DHT22;38531;53.296;6.614;2023-03-14T02:10:04;11.20;99.90
52643;DHT22;38531;53.296;6.614;2023-03-14T02:12:31;10.10;99.90
52643;DHT22;38531;53.296;6.614;2023-03-14T02:14:57;10.10;99.90
52643;DHT22;38531;53.296;6.614;2023-03-14T02:17:24;10.10;99.90
52643;DHT22;38531;53.296;6.614;2023-03-14T02:23:00;10.00;99.90
52643;DHT22;38531;53.296;6.614;2023-03-14T02:28:07;9.90;99.90
52643;DHT22;38531;53.296;6.614;2023-03-14T02:30:33;10.00;99.90
52643;DHT22;38531;53.296;6.614;2023-03-14T02:33:08;9.40;99.90
52643;DHT22;38531;53.296;6.614;2023-03-14T02:35:42;9.90;99.90
52643;DHT22;38531;53.296;6.614;2023-03-14T02:38:27;10.00;99.90
52643;DHT22;38531;53.296;6.614;2023-03-14T02:40:55;9.80;99.90
52643;DHT22;38531;53.296;6.614;2023-03-14T02:43:21;9.80;99.90
52643;DHT22;38531;53.296;6.614;2023-03-14T02:45:49;9.90;99.90
52643;DHT22;38531;53.296;6.614;2023-03-14T02:50:51;9.80;99.90
52643;DHT22;38531;53.296;6.614;2023-03-14T02:53:24;9.60;99.90
52643;DHT22;38531;53.296;6.614;2023-03-14T02:55:51;9.60;99.90
52643;DHT22;38531;53.296;6.614;2023-03-14T02:58:17;9.60;99.90
52643;DHT22;38531;53.296;6.614;2023-03-14T03:00:44;9.50;99.90
52643;DHT22;38531;53.296;6.614;2023-03-14T03:03:09;9.50;99.90
52643;DHT22;38531;53.296;6.614;2023-03-14T03:05:35;9.50;99.90
52643;DHT22;38531;53.296;6.614;2023-03-14T03:08:01;9.50;99.90
52643;DHT22;38531;53.296;6.614;2023-03-14T03:10:27;9.50;99.90
52643;DHT22;38531;53.296;6.614;2023-03-14T03:12:53;9.40;99.90
52643;DHT22;38531;53.296;6.614;2023-03-14T03:15:19;9.50;99.90
52643;DHT22;38531;53.296;6.614;2023-03-14T03:17:45;9.40;99.90
52643;DHT22;38531;53.296;6.614;2023-03-14T03:20:10;9.50;99.90
52643;DHT22;38531;53.296;6.614;2023-03-14T03:22:39;9.80;99.90
52643;DHT22;38531;53.296;6.614;2023-03-14T03:25:06;9.40;99.90
52643;DHT22;38531;53.296;6.614;2023-03-14T03:27:34;9.40;99.90
52643;DHT22;38531;53.296;6.614;2023-03-14T03:29:59;9.40;99.90
52643;DHT22;38531;53.296;6.614;2023-03-14T03:32:25;9.50;99.90
52643;DHT22;38531;53.296;6.614;2023-03-14T03:34:52;9.30;99.90
52643;DHT22;38531;53.296;6.614;2023-03-14T03:37:18;10.00;99.90
52643;DHT22;38531;53.296;6.614;2023-03-14T03:39:43;9.20;99.90
52643;DHT22;38531;53.296;6.614;2023-03-14T03:42:09;9.20;99.90
52643;DHT22;38531;53.296;6.614;2023-03-14T03:44:35;9.20;99.90
52643;DHT22;38531;53.296;6.614;2023-03-14T03:47:01;9.10;99.90
52643;DHT22;38531;53.296;6.614;2023-03-14T03:49:31;8.90;99.90
52643;DHT22;38531;53.296;6.614;2023-03-14T03:51:57;10.10;99.90
52643;DHT22;38531;53.296;6.614;2023-03-14T03:54:23;10.00;99.90
52643;DHT22;38531;53.296;6.614;2023-03-14T03:56:48;9.00;99.90
52643;DHT22;38531;53.296;6.614;2023-03-14T03:59:14;9.00;99.90
52643;DHT22;38531;53.296;6.614;2023-03-14T04:01:40;9.00;99.90
52643;DHT22;38531;53.296;6.614;2023-03-14T04:04:06;9.00;99.90
52643;DHT22;38531;53.296;6.614;2023-03-14T04:06:32;9.80;99.90
52643;DHT22;38531;53.296;6.614;2023-03-14T04:08:58;9.00;99.90
52643;DHT22;38531;53.296;6.614;2023-03-14T04:11:24;9.00;99.90
52643;DHT22;38531;53.296;6.614;2023-03-14T04:13:49;8.90;99.90
52643;DHT22;38531;53.296;6.614;2023-03-14T04:16:21;10.10;99.90
52643;DHT22;38531;53.296;6.614;2023-03-14T04:18:48;9.40;99.90
52643;DHT22;38531;53.296;6.614;2023-03-14T04:21:14;9.00;99.90
52643;DHT22;38531;53.296;6.614;2023-03-14T04:23:40;9.50;99.90
52643;DHT22;38531;53.296;6.614;2023-03-14T04:26:06;9.50;99.90
52643;DHT22;38531;53.296;6.614;2023-03-14T04:28:32;9.30;99.90
52643;DHT22;38531;53.296;6.614;2023-03-14T04:30:58;9.00;99.90
52643;DHT22;38531;53.296;6.614;2023-03-14T04:33:24;9.00;99.90
52643;DHT22;38531;53.296;6.614;2023-03-14T04:35:54;9.00;99.90
52643;DHT22;38531;53.296;6.614;2023-03-14T04:38:20;9.00;99.90
52643;DHT22;38531;53.296;6.614;2023-03-14T04:40:45;9.40;99.90
52643;DHT22;38531;53.296;6.614;2023-03-14T04:43:11;8.90;99.90
52643;DHT22;38531;53.296;6.614;2023-03-14T04:45:41;8.90;99.90
52643;DHT22;38531;53.296;6.614;2023-03-14T04:48:07;9.60;99.90
52643;DHT22;38531;53.296;6.614;2023-03-14T04:50:32;8.90;99.90
52643;DHT22;38531;53.296;6.614;2023-03-14T04:52:58;9.00;99.90
52643;DHT22;38531;53.296;6.614;2023-03-14T04:55:24;9.70;99.90
52643;DHT22;38531;53.296;6.614;2023-03-14T04:57:50;8.90;99.90
52643;DHT22;38531;53.296;6.614;2023-03-14T05:00:15;9.60;99.90
52643;DHT22;38531;53.296;6.614;2023-03-14T05:02:44;8.90;99.90
52643;DHT22;38531;53.296;6.614;2023-03-14T05:08:50;8.90;99.90
52643;DHT22;38531;53.296;6.614;2023-03-14T05:11:16;8.80;99.90
52643;DHT22;38531;53.296;6.614;2023-03-14T05:13:42;9.80;99.90
52643;DHT22;38531;53.296;6.614;2023-03-14T05:16:09;9.10;99.90
52643;DHT22;38531;53.296;6.614;2023-03-14T05:18:35;8.80;99.90
52643;DHT22;38531;53.296;6.614;2023-03-14T05:21:02;8.80;99.90
52643;DHT22;38531;53.296;6.614;2023-03-14T05:23:28;8.80;99.90
52643;DHT22;38531;53.296;6.614;2023-03-14T05:25:54;9.40;99.90
52643;DHT22;38531;53.296;6.614;2023-03-14T05:28:19;9.50;99.90
52643;DHT22;38531;53.296;6.614;2023-03-14T05:30:45;9.70;99.90
52643;DHT22;38531;53.296;6.614;2023-03-14T05:33:11;8.70;99.90
52643;DHT22;38531;53.296;6.614;2023-03-14T05:35:36;9.40;99.90
52643;DHT22;38531;53.296;6.614;2023-03-14T05:38:02;8.70;99.90
52643;DHT22;38531;53.296;6.614;2023-03-14T05:40:28;9.70;99.90
52643;DHT22;38531;53.296;6.614;2023-03-14T05:42:53;9.10;99.90
52643;DHT22;38531;53.296;6.614;2023-03-14T05:45:19;8.90;99.90
52643;DHT22;38531;53.296;6.614;2023-03-14T05:47:45;9.00;99.90
52643;DHT22;38531;53.296;6.614;2023-03-14T05:50:10;8.80;99.90
52643;DHT22;38531;53.296;6.614;2023-03-14T05:52:36;8.70;99.90
52643;DHT22;38531;53.296;6.614;2023-03-14T05:55:03;8.80;99.90
52643;DHT22;38531;53.296;6.614;2023-03-14T05:57:29;8.60;99.90
52643;DHT22;38531;53.296;6.614;2023-03-14T05:59:54;8.60;99.90
52643;DHT22;38531;53.296;6.614;2023-03-14T06:02:20;9.40;99.90
52643;DHT22;38531;53.296;6.614;2023-03-14T06:04:46;9.30;99.90
52643;DHT22;38531;53.296;6.614;2023-03-14T06:07:11;8.80;99.90
52643;DHT22;38531;53.296;6.614;2023-03-14T06:09:37;8.50;99.90
52643;DHT22;38531;53.296;6.614;2023-03-14T06:12:03;8.60;99.90
52643;DHT22;38531;53.296;6.614;2023-03-14T06:14:29;8.60;99.90
52643;DHT22;38531;53.296;6.614;2023-03-14T06:16:55;8.50;99.90
52643;DHT22;38531;53.296;6.614;2023-03-14T06:19:20;8.50;99.90
52643;DHT22;38531;53.296;6.614;2023-03-14T06:21:46;9.10;99.90
52643;DHT22;38531;53.296;6.614;2023-03-14T06:24:12;9.50;99.90
52643;DHT22;38531;53.296;6.614;2023-03-14T06:26:38;8.60;99.90
52643;DHT22;38531;53.296;6.614;2023-03-14T06:29:03;8.70;99.90
52643;DHT22;38531;53.296;6.614;2023-03-14T06:31:31;8.20;99.90
52643;DHT22;38531;53.296;6.614;2023-03-14T06:33:57;8.20;99.90
52643;DHT22;38531;53.296;6.614;2023-03-14T06:36:22;9.40;99.90
52643;DHT22;38531;53.296;6.614;2023-03-14T06:38:48;8.10;99.90
52643;DHT22;38531;53.296;6.614;2023-03-14T06:41:14;8.80;99.90
52643;DHT22;38531;53.296;6.614;2023-03-14T06:43:40;7.80;99.90
52643;DHT22;38531;53.296;6.614;2023-03-14T06:46:05;7.60;99.90
52643;DHT22;38531;53.296;6.614;2023-03-14T06:48:31;7.40;99.90
52643;DHT22;38531;53.296;6.614;2023-03-14T06:50:57;7.30;99.90
52643;DHT22;38531;53.296;6.614;2023-03-14T06:53:23;7.40;99.90
52643;DHT22;38531;53.296;6.614;2023-03-14T06:55:49;7.90;99.90
52643;DHT22;38531;53.296;6.614;2023-03-14T06:58:14;6.90;99.90
52643;DHT22;38531;53.296;6.614;2023-03-14T07:00:40;6.40;99.90
52643;DHT22;38531;53.296;6.614;2023-03-14T07:03:06;5.90;99.90
52643;DHT22;38531;53.296;6.614;2023-03-14T07:05:32;7.10;99.90
52643;DHT22;38531;53.296;6.614;2023-03-14T07:07:58;5.70;99.90
52643;DHT22;38531;53.296;6.614;2023-03-14T07:10:24;5.50;99.90
52643;DHT22;38531;53.296;6.614;2023-03-14T07:12:49;5.30;99.90
52643;DHT22;38531;53.296;6.614;2023-03-14T07:15:15;5.40;99.90
52643;DHT22;38531;53.296;6.614;2023-03-14T07:17:41;5.20;99.90
52643;DHT22;38531;53.296;6.614;2023-03-14T07:20:08;5.20;99.90
52643;DHT22;38531;53.296;6.614;2023-03-14T07:22:34;5.10;99.90
52643;DHT22;38531;53.296;6.614;2023-03-14T07:25:00;5.00;99.90
52643;DHT22;38531;53.296;6.614;2023-03-14T07:27:26;5.00;99.90
52643;DHT22;38531;53.296;6.614;2023-03-14T07:29:51;5.40;99.90
52643;DHT22;38531;53.296;6.614;2023-03-14T07:32:17;4.90;99.90
52643;DHT22;38531;53.296;6.614;2023-03-14T07:34:43;5.80;99.90
52643;DHT22;38531;53.296;6.614;2023-03-14T07:37:09;4.80;99.90
52643;DHT22;38531;53.296;6.614;2023-03-14T07:39:35;4.70;99.90
52643;DHT22;38531;53.296;6.614;2023-03-14T07:42:04;4.80;99.90
52643;DHT22;38531;53.296;6.614;2023-03-14T07:44:30;4.70;99.90
52643;DHT22;38531;53.296;6.614;2023-03-14T07:46:58;4.60;99.90
52643;DHT22;38531;53.296;6.614;2023-03-14T07:49:24;5.80;99.90
52643;DHT22;38531;53.296;6.614;2023-03-14T07:51:49;4.70;99.90
52643;DHT22;38531;53.296;6.614;2023-03-14T07:54:16;4.60;99.90
52643;DHT22;38531;53.296;6.614;2023-03-14T07:56:41;4.40;99.90
52643;DHT22;38531;53.296;6.614;2023-03-14T07:59:07;4.50;99.90
52643;DHT22;38531;53.296;6.614;2023-03-14T08:01:33;4.50;99.90
52643;DHT22;38531;53.296;6.614;2023-03-14T08:03:59;4.60;99.90
52643;DHT22;38531;53.296;6.614;2023-03-14T08:06:25;4.70;99.90
52643;DHT22;38531;53.296;6.614;2023-03-14T08:08:51;4.80;99.90
52643;DHT22;38531;53.296;6.614;2023-03-14T08:11:16;4.90;99.90
52643;DHT22;38531;53.296;6.614;2023-03-14T08:13:42;4.70;99.90
52643;DHT22;38531;53.296;6.614;2023-03-14T08:16:15;4.70;99.90
52643;DHT22;38531;53.296;6.614;2023-03-14T08:18:41;4.70;99.90
52643;DHT22;38531;53.296;6.614;2023-03-14T08:21:09;5.80;99.90
52643;DHT22;38531;53.296;6.614;2023-03-14T08:23:37;5.00;99.90
52643;DHT22;38531;53.296;6.614;2023-03-14T08:26:03;5.10;99.90
52643;DHT22;38531;53.296;6.614;2023-03-14T08:28:34;5.10;99.90
52643;DHT22;38531;53.296;6.614;2023-03-14T08:31:00;5.60;99.90
52643;DHT22;38531;53.296;6.614;2023-03-14T08:33:29;6.50;99.90
52643;DHT22;38531;53.296;6.614;2023-03-14T08:35:57;5.40;99.90
52643;DHT22;38531;53.296;6.614;2023-03-14T08:38:24;5.40;99.90
52643;DHT22;38531;53.296;6.614;2023-03-14T08:40:58;5.40;99.90
52643;DHT22;38531;53.296;6.614;2023-03-14T08:43:28;6.00;99.90
52643;DHT22;38531;53.296;6.614;2023-03-14T08:45:57;6.30;99.90
52643;DHT22;38531;53.296;6.614;2023-03-14T08:48:24;5.50;99.90
52643;DHT22;38531;53.296;6.614;2023-03-14T08:50:49;5.70;99.90
52643;DHT22;38531;53.296;6.614;2023-03-14T08:53:15;5.70;99.90
52643;DHT22;38531;53.296;6.614;2023-03-14T08:55:46;5.70;99.90
52643;DHT22;38531;53.296;6.614;2023-03-14T08:58:12;5.90;99.90
52643;DHT22;38531;53.296;6.614;2023-03-14T09:00:38;5.40;99.90
52643;DHT22;38531;53.296;6.614;2023-03-14T09:03:06;5.90;99.90
52643;DHT22;38531;53.296;6.614;2023-03-14T09:05:34;5.90;99.90
52643;DHT22;38531;53.296;6.614;2023-03-14T09:08:00;5.90;99.90
52643;DHT22;38531;53.296;6.614;2023-03-14T09:10:29;6.10;99.90
52643;DHT22;38531;53.296;6.614;2023-03-14T09:12:54;6.30;99.90
52643;DHT22;38531;53.296;6.614;2023-03-14T09:15:21;6.30;99.90
52643;DHT22;38531;53.296;6.614;2023-03-14T09:17:47;6.50;99.90
52643;DHT22;38531;53.296;6.614;2023-03-14T09:20:13;6.70;99.90
52643;DHT22;38531;53.296;6.614;2023-03-14T09:22:39;7.20;99.90
52643;DHT22;38531;53.296;6.614;2023-03-14T09:25:06;6.70;99.90
52643;DHT22;38531;53.296;6.614;2023-03-14T09:27:43;6.60;99.90
52643;DHT22;38531;53.296;6.614;2023-03-14T09:30:09;6.20;99.90
52643;DHT22;38531;53.296;6.614;2023-03-14T09:32:35;6.70;99.90
52643;DHT22;38531;53.296;6.614;2023-03-14T09:35:01;6.60;99.90
52643;DHT22;38531;53.296;6.614;2023-03-14T09:37:27;6.60;99.90
52643;DHT22;38531;53.296;6.614;2023-03-14T09:39:52;7.10;99.90
52643;DHT22;38531;53.296;6.614;2023-03-14T09:42:24;6.60;99.90
52643;DHT22;38531;53.296;6.614;2023-03-14T09:44:57;6.90;99.90
52643;DHT22;38531;53.296;6.614;2023-03-14T09:47:25;7.40;99.90
52643;DHT22;38531;53.296;6.614;2023-03-14T09:49:52;7.90;99.90
52643;DHT22;38531;53.296;6.614;2023-03-14T09:52:24;6.90;99.90
52643;DHT22;38531;53.296;6.614;2023-03-14T09:55:03;6.90;99.90
52643;DHT22;38531;53.296;6.614;2023-03-14T09:57:34;7.10;99.90
52643;DHT22;38531;53.296;6.614;2023-03-14T10:00:05;6.90;99.90
52643;DHT22;38531;53.296;6.614;2023-03-14T10:02:38;6.60;99.90
52643;DHT22;38531;53.296;6.614;2023-03-14T10:08:49;6.90;99.90
52643;DHT22;38531;53.296;6.614;2023-03-14T10:11:18;7.00;99.90
52643;DHT22;38531;53.296;6.614;2023-03-14T10:16:32;6.40;99.90
52643;DHT22;38531;53.296;6.614;2023-03-14T10:19:04;7.00;99.90
52643;DHT22;38531;53.296;6.614;2023-03-14T10:21:30;6.70;99.90
52643;DHT22;38531;53.296;6.614;2023-03-14T10:24:20;7.20;99.90
52643;DHT22;38531;53.296;6.614;2023-03-14T10:27:03;7.10;99.90
52643;DHT22;38531;53.296;6.614;2023-03-14T10:29:30;7.10;99.90
52643;DHT22;38531;53.296;6.614;2023-03-14T10:32:17;7.40;99.90
52643;DHT22;38531;53.296;6.614;2023-03-14T10:34:45;7.00;99.90
52643;DHT22;38531;53.296;6.614;2023-03-14T10:37:26;8.00;99.90
52643;DHT22;38531;53.296;6.614;2023-03-14T10:40:00;7.10;99.90
52643;DHT22;38531;53.296;6.614;2023-03-14T10:42:49;7.30;99.90
52643;DHT22;38531;53.296;6.614;2023-03-14T10:45:42;7.60;99.90
52643;DHT22;38531;53.296;6.614;2023-03-14T10:48:24;7.60;99.90
52643;DHT22;38531;53.296;6.614;2023-03-14T10:51:05;7.70;99.90
52643;DHT22;38531;53.296;6.614;2023-03-14T10:56:20;7.50;99.90
52643;DHT22;38531;53.296;6.614;2023-03-14T10:58:50;8.50;99.90
52643;DHT22;38531;53.296;6.614;2023-03-14T11:36:09;7.90;96.30
52643;DHT22;38531;53.296;6.614;2023-03-14T11:38:48;7.80;94.20
52643;DHT22;38531;53.296;6.614;2023-03-14T11:41:20;8.10;95.10
52643;DHT22;38531;53.296;6.614;2023-03-14T11:43:56;8.00;95.40
52643;DHT22;38531;53.296;6.614;2023-03-14T11:49:43;8.00;95.50
52643;DHT22;38531;53.296;6.614;2023-03-14T11:52:36;7.90;97.30
52643;DHT22;38531;53.296;6.614;2023-03-14T11:55:10;8.10;95.90
52643;DHT22;38531;53.296;6.614;2023-03-14T11:57:39;8.10;96.70
52643;DHT22;38531;53.296;6.614;2023-03-14T12:00:18;8.30;96.10
52643;DHT22;38531;53.296;6.614;2023-03-14T12:05:58;8.40;95.70
52643;DHT22;38531;53.296;6.614;2023-03-14T12:08:48;8.30;96.70
52643;DHT22;38531;53.296;6.614;2023-03-14T12:16:46;8.00;99.90
52643;DHT22;38531;53.296;6.614;2023-03-14T12:22:05;7.90;99.90
52643;DHT22;38531;53.296;6.614;2023-03-14T12:24:35;7.70;99.90
52643;DHT22;38531;53.296;6.614;2023-03-14T12:27:04;7.60;99.90
52643;DHT22;38531;53.296;6.614;2023-03-14T12:29:32;7.80;99.90
52643;DHT22;38531;53.296;6.614;2023-03-14T12:32:20;7.40;99.90
52643;DHT22;38531;53.296;6.614;2023-03-14T12:34:47;7.60;99.90
52643;DHT22;38531;53.296;6.614;2023-03-14T12:37:22;7.50;99.90
52643;DHT22;38531;53.296;6.614;2023-03-14T12:43:00;7.50;99.90
52643;DHT22;38531;53.296;6.614;2023-03-14T12:45:34;7.70;99.40
52643;DHT22;38531;53.296;6.614;2023-03-14T12:48:23;7.80;99.60
52643;DHT22;38531;53.296;6.614;2023-03-14T12:51:04;7.90;97.80
52643;DHT22;38531;53.296;6.614;2023-03-14T12:56:54;7.80;96.60
52643;DHT22;38531;53.296;6.614;2023-03-14T12:59:38;7.80;95.30
52643;DHT22;38531;53.296;6.614;2023-03-14T13:04:42;8.30;95.40
52643;DHT22;38531;53.296;6.614;2023-03-14T13:12:56;8.30;94.50
52643;DHT22;38531;53.296;6.614;2023-03-14T13:15:35;8.10;95.80
52643;DHT22;38531;53.296;6.614;2023-03-14T13:18:16;8.10;95.80
52643;DHT22;38531;53.296;6.614;2023-03-14T13:20:51;8.00;96.50
52643;DHT22;38531;53.296;6.614;2023-03-14T13:23:31;8.00;95.60
52643;DHT22;38531;53.296;6.614;2023-03-14T13:25:58;8.20;93.40
52643;DHT22;38531;53.296;6.614;2023-03-14T13:28:26;8.10;93.20
52643;DHT22;38531;53.296;6.614;2023-03-14T13:30:59;8.10;91.90
52643;DHT22;38531;53.296;6.614;2023-03-14T13:33:25;8.10;91.90
52643;DHT22;38531;53.296;6.614;2023-03-14T13:35:57;7.90;92.90
52643;DHT22;38531;53.296;6.614;2023-03-14T13:38:26;8.10;93.80
52643;DHT22;38531;53.296;6.614;2023-03-14T13:40:55;8.10;94.20
52643;DHT22;38531;53.296;6.614;2023-03-14T13:43:36;8.10;94.80
52643;DHT22;38531;53.296;6.614;2023-03-14T13:46:22;8.20;95.00
52643;DHT22;38531;53.296;6.614;2023-03-14T13:49:00;8.30;96.00
52643;DHT22;38531;53.296;6.614;2023-03-14T13:51:27;8.30;95.60
52643;DHT22;38531;53.296;6.614;2023-03-14T13:53:57;8.00;95.50
52643;DHT22;38531;53.296;6.614;2023-03-14T13:56:28;8.30;94.90
52643;DHT22;38531;53.296;6.614;2023-03-14T13:58:54;8.10;95.40
52643;DHT22;38531;53.296;6.614;2023-03-14T14:03:55;7.70;97.30
52643;DHT22;38531;53.296;6.614;2023-03-14T14:06:35;7.70;96.90
52643;DHT22;38531;53.296;6.614;2023-03-14T14:09:12;7.60;97.50
52643;DHT22;38531;53.296;6.614;2023-03-14T14:11:45;7.60;96.80
52643;DHT22;38531;53.296;6.614;2023-03-14T14:14:34;7.50;97.20
52643;DHT22;38531;53.296;6.614;2023-03-14T14:17:03;7.50;95.50
52643;DHT22;38531;53.296;6.614;2023-03-14T14:19:33;7.40;95.10
52643;DHT22;38531;53.296;6.614;2023-03-14T14:22:00;7.40;94.50
52643;DHT22;38531;53.296;6.614;2023-03-14T14:24:30;7.30;94.70
52643;DHT22;38531;53.296;6.614;2023-03-14T14:27:07;7.10;95.70
52643;DHT22;38531;53.296;6.614;2023-03-14T14:29:34;7.20;94.90
52643;DHT22;38531;53.296;6.614;2023-03-14T14:32:01;7.30;95.40
52643;DHT22;38531;53.296;6.614;2023-03-14T14:34:27;7.20;97.30
52643;DHT22;38531;53.296;6.614;2023-03-14T14:36:53;7.80;98.70
52643;DHT22;38531;53.296;6.614;2023-03-14T14:39:23;6.90;99.10
52643;DHT22;38531;53.296;6.614;2023-03-14T14:41:50;6.80;99.90
52643;DHT22;38531;53.296;6.614;2023-03-14T14:44:21;6.80;99.90
52643;DHT22;38531;53.296;6.614;2023-03-14T14:46:54;7.40;99.90
52643;DHT22;38531;53.296;6.614;2023-03-14T14:49:20;6.60;99.90
52643;DHT22;38531;53.296;6.614;2023-03-14T14:51:50;6.50;99.90
52643;DHT22;38531;53.296;6.614;2023-03-14T14:54:34;6.90;99.90
52643;DHT22;38531;53.296;6.614;2023-03-14T14:57:04;6.90;99.90
52643;DHT22;38531;53.296;6.614;2023-03-14T14:59:30;6.80;99.90
52643;DHT22;38531;53.296;6.614;2023-03-14T15:02:00;6.90;99.90
52643;DHT22;38531;53.296;6.614;2023-03-14T15:04:27;7.00;99.90
52643;DHT22;38531;53.296;6.614;2023-03-14T15:06:55;7.20;97.40
52643;DHT22;38531;53.296;6.614;2023-03-14T15:09:20;7.90;98.50
52643;DHT22;38531;53.296;6.614;2023-03-14T15:11:47;7.10;98.50
52643;DHT22;38531;53.296;6.614;2023-03-14T15:14:13;7.40;96.40
52643;DHT22;38531;53.296;6.614;2023-03-14T15:16:40;7.40;95.20
52643;DHT22;38531;53.296;6.614;2023-03-14T15:19:23;7.30;95.80
52643;DHT22;38531;53.296;6.614;2023-03-14T15:21:54;7.30;96.60
52643;DHT22;38531;53.296;6.614;2023-03-14T15:24:20;7.40;95.10
52643;DHT22;38531;53.296;6.614;2023-03-14T15:26:50;7.20;95.40
52643;DHT22;38531;53.296;6.614;2023-03-14T15:29:16;7.10;95.70
52643;DHT22;38531;53.296;6.614;2023-03-14T15:31:42;7.10;95.40
52643;DHT22;38531;53.296;6.614;2023-03-14T15:34:09;7.00;96.60
52643;DHT22;38531;53.296;6.614;2023-03-14T15:36:36;7.00;97.10
52643;DHT22;38531;53.296;6.614;2023-03-14T15:39:04;7.00;97.40
52643;DHT22;38531;53.296;6.614;2023-03-14T15:41:31;7.10;96.90
52643;DHT22;38531;53.296;6.614;2023-03-14T15:43:57;7.70;97.60
52643;DHT22;38531;53.296;6.614;2023-03-14T15:46:23;7.00;97.60
52643;DHT22;38531;53.296;6.614;2023-03-14T15:48:52;7.00;97.20
52643;DHT22;38531;53.296;6.614;2023-03-14T15:51:18;6.90;97.00
52643;DHT22;38531;53.296;6.614;2023-03-14T15:53:45;7.00;95.90
52643;DHT22;38531;53.296;6.614;2023-03-14T15:56:16;6.90;95.60
52643;DHT22;38531;53.296;6.614;2023-03-14T15:58:42;6.70;95.70
52643;DHT22;38531;53.296;6.614;2023-03-14T16:01:13;7.90;95.80
52643;DHT22;38531;53.296;6.614;2023-03-14T16:03:39;6.80;94.50
52643;DHT22;38531;53.296;6.614;2023-03-14T16:06:05;6.80;95.60
52643;DHT22;38531;53.296;6.614;2023-03-14T16:08:31;6.70;97.50
52643;DHT22;38531;53.296;6.614;2023-03-14T16:11:00;6.80;99.30
52643;DHT22;38531;53.296;6.614;2023-03-14T16:13:26;6.40;99.90
52643;DHT22;38531;53.296;6.614;2023-03-14T16:16:01;6.00;99.90
52643;DHT22;38531;53.296;6.614;2023-03-14T16:18:28;5.80;99.90
52643;DHT22;38531;53.296;6.614;2023-03-14T16:21:00;5.60;99.90
52643;DHT22;38531;53.296;6.614;2023-03-14T16:23:26;6.20;99.90
52643;DHT22;38531;53.296;6.614;2023-03-14T16:25:53;6.70;99.90
52643;DHT22;38531;53.296;6.614;2023-03-14T16:28:19;6.10;99.90
52643;DHT22;38531;53.296;6.614;2023-03-14T16:30:45;5.40;99.90
52643;DHT22;38531;53.296;6.614;2023-03-14T16:33:12;6.50;99.90
52643;DHT22;38531;53.296;6.614;2023-03-14T16:35:39;5.60;99.90
52643;DHT22;38531;53.296;6.614;2023-03-14T16:38:05;5.80;99.90
52643;DHT22;38531;53.296;6.614;2023-03-14T16:40:34;6.00;99.90
52643;DHT22;38531;53.296;6.614;2023-03-14T16:43:00;5.90;99.90
52643;DHT22;38531;53.296;6.614;2023-03-14T16:45:28;6.80;99.90
52643;DHT22;38531;53.296;6.614;2023-03-14T16:47:54;5.80;99.90
52643;DHT22;38531;53.296;6.614;2023-03-14T16:50:20;5.90;99.90
52643;DHT22;38531;53.296;6.614;2023-03-14T16:52:45;5.90;99.90
52643;DHT22;38531;53.296;6.614;2023-03-14T16:55:14;6.00;99.90
52643;DHT22;38531;53.296;6.614;2023-03-14T16:57:39;5.80;99.90
52643;DHT22;38531;53.296;6.614;2023-03-14T17:00:06;5.80;99.90
52643;DHT22;38531;53.296;6.614;2023-03-14T17:02:32;5.70;99.90
52643;DHT22;38531;53.296;6.614;2023-03-14T17:04:58;5.50;99.90
52643;DHT22;38531;53.296;6.614;2023-03-14T17:07:27;6.50;99.90
52643;DHT22;38531;53.296;6.614;2023-03-14T17:09:52;5.40;99.90
52643;DHT22;38531;53.296;6.614;2023-03-14T17:12:19;5.20;99.90
52643;DHT22;38531;53.296;6.614;2023-03-14T17:14:45;5.30;99.90
52643;DHT22;38531;53.296;6.614;2023-03-14T17:17:10;5.40;99.90
52643;DHT22;38531;53.296;6.614;2023-03-14T17:19:38;5.80;99.90
52643;DHT22;38531;53.296;6.614;2023-03-14T17:22:04;5.80;99.90
52643;DHT22;38531;53.296;6.614;2023-03-14T17:24:30;5.10;99.90